Time;durP1;ratioP1;P1;durP2;ratioP2;P2;SDS_P1;SDS_P2;PMS_P1;PMS_P2;Temp;Humidity;BMP_temperature;BMP_pressure;BME280_temperature;BME280_humidity;BME280_pressure;Samples;Min_cycle;Max_cycle;Signal;HPM_P1;HPM_P2
2022/05/06 00:02:20;;;;;;;13.85;7.05;;;;;;;4.48;100.00;100590.50;1740776;81;20134;-62
2022/05/06 00:04:46;;;;;;;;;;;;;;;4.45;100.00;100595.81;1749961;80;21056;-60
2022/05/06 00:07:13;;;;;;;13.15;6.55;;;;;;;4.44;100.00;100589.27;1749833;81;20314;-62
2022/05/06 00:09:39;;;;;;;13.38;6.95;;;;;;;4.38;100.00;100595.00;1729456;81;21110;-61
2022/05/06 00:12:10;;;;;;;17.75;6.78;;;;;;;4.39;100.00;100599.87;1724447;82;20918;-60
2022/05/06 00:14:37;;;;;;;12.75;7.20;;;;;;;4.41;100.00;100599.13;1725258;82;21573;-61
2022/05/06 00:17:04;;;;;;;13.35;7.62;;;;;;;4.40;100.00;100598.30;1751656;82;20975;-60
2022/05/06 00:19:31;;;;;;;15.50;7.60;;;;;;;4.40;100.00;100598.30;1750867;81;21043;-61
2022/05/06 00:21:57;;;;;;;15.43;7.90;;;;;;;4.41;100.00;100601.31;1751791;81;21505;-61
2022/05/06 00:24:23;;;;;;;14.87;7.50;;;;;;;4.43;100.00;100603.77;1752177;81;21034;-61
2022/05/06 00:26:50;;;;;;;12.45;7.37;;;;;;;4.41;100.00;100597.78;1752392;81;21321;-61
2022/05/06 00:29:16;;;;;;;16.12;7.55;;;;;;;4.41;100.00;100597.27;1749259;81;21040;-61
2022/05/06 00:31:43;;;;;;;12.98;7.42;;;;;;;4.41;100.00;100604.00;1745611;82;20987;-61
2022/05/06 00:34:10;;;;;;;13.90;7.58;;;;;;;4.46;100.00;100609.58;1749204;81;21491;-61
2022/05/06 00:36:38;;;;;;;15.08;8.50;;;;;;;4.49;100.00;100602.95;1742983;82;20996;-60
2022/05/06 00:39:04;;;;;;;15.32;7.70;;;;;;;4.53;100.00;100603.36;1742690;80;21538;-62
2022/05/06 00:41:34;;;;;;;14.30;7.60;;;;;;;4.55;100.00;100604.80;1751871;81;21291;-61
2022/05/06 00:44:02;;;;;;;14.98;7.85;;;;;;;4.56;100.00;100597.54;1727458;81;21099;-61
2022/05/06 00:46:29;;;;;;;14.90;8.40;;;;;;;4.55;100.00;100599.92;1751966;82;21564;-61
2022/05/06 00:48:56;;;;;;;14.80;7.80;;;;;;;4.56;100.00;100600.23;1750789;80;21067;-61
2022/05/06 00:51:22;;;;;;;13.78;7.65;;;;;;;4.57;100.00;100599.20;1747158;82;21056;-61
2022/05/06 00:53:49;;;;;;;16.35;8.20;;;;;;;4.56;100.00;100598.38;1754393;80;21019;-61
2022/05/06 00:56:17;;;;;;;17.17;8.38;;;;;;;4.55;100.00;100591.31;1753723;80;20998;-61
2022/05/06 00:58:44;;;;;;;15.95;8.08;;;;;;;4.51;100.00;100594.95;1753120;80;21024;-61
2022/05/06 01:01:11;;;;;;;16.45;8.23;;;;;;;4.49;100.00;100595.70;1753890;81;21889;-62
2022/05/06 01:03:37;;;;;;;14.55;8.40;;;;;;;4.45;100.00;100591.77;1750275;81;21074;-62
2022/05/06 01:06:07;;;;;;;15.03;8.48;;;;;;;4.46;100.00;100594.75;1724075;82;21570;-61
2022/05/06 01:08:34;;;;;;;16.00;8.83;;;;;;;4.45;100.00;100597.16;1753558;80;21022;-61
2022/05/06 01:11:01;;;;;;;;;;;;;;;4.44;100.00;100596.84;1756959;81;21024;-62
2022/05/06 01:13:28;;;;;;;13.78;7.65;;;;;;;4.43;100.00;100602.43;1745281;80;20403;-62
2022/05/06 01:15:56;;;;;;;17.35;8.58;;;;;;;4.36;100.00;100593.02;1748861;81;21479;-63
2022/05/06 01:18:28;;;;;;;16.50;8.20;;;;;;;4.37;100.00;100601.93;1754521;81;20982;-60
2022/05/06 01:20:54;;;;;;;18.20;8.75;;;;;;;4.37;100.00;100600.58;1753927;80;21041;-61
2022/05/06 01:23:23;;;;;;;15.45;8.80;;;;;;;4.36;100.00;100601.09;1743204;80;21044;-62
2022/05/06 01:25:50;;;;;;;13.93;8.00;;;;;;;4.36;100.00;100600.27;1749910;80;21015;-61
2022/05/06 01:28:16;;;;;;;17.57;8.60;;;;;;;4.32;100.00;100606.59;1751348;82;20976;-62
2022/05/06 01:30:45;;;;;;;17.27;8.05;;;;;;;4.32;100.00;100606.59;1750877;81;21023;-61
2022/05/06 01:33:18;;;;;;;15.78;8.28;;;;;;;4.30;100.00;100610.55;1740923;81;21565;-61
2022/05/06 01:35:58;;;;;;;15.35;7.30;;;;;;;4.26;100.00;100607.45;1748222;81;21518;-61
2022/05/06 01:38:40;;;;;;;16.30;8.53;;;;;;;4.25;100.00;100611.17;1740787;80;21464;-62
2022/05/06 01:41:10;;;;;;;13.08;7.67;;;;;;;4.18;100.00;100605.50;1754856;81;21474;-61
2022/05/06 01:43:42;;;;;;;16.42;7.65;;;;;;;4.17;100.00;100612.75;1738532;81;21498;-61
2022/05/06 01:46:13;;;;;;;16.07;7.67;;;;;;;4.13;100.00;100610.16;1749819;81;21024;-61
2022/05/06 01:48:42;;;;;;;14.63;7.85;;;;;;;4.07;100.00;100611.01;1685405;84;21033;-61
2022/05/06 01:51:14;;;;;;;15.78;8.23;;;;;;;4.01;100.00;100618.04;1722375;82;21310;-61
2022/05/06 01:53:42;;;;;;;15.13;8.28;;;;;;;3.93;100.00;100621.48;1692706;83;20968;-62
2022/05/06 01:56:08;;;;;;;;;;;;;;;3.86;100.00;100617.41;1700687;83;21511;-61
2022/05/06 01:58:37;;;;;;;16.77;7.28;;;;;;;3.75;100.00;100627.98;1713903;82;20402;-61
2022/05/06 02:01:05;;;;;;;14.95;7.78;;;;;;;3.62;100.00;100613.14;1686908;83;21044;-61
2022/05/06 02:06:20;;;;;;;13.80;7.37;;;;;;;3.53;100.00;100621.11;1696433;84;21086;-60
2022/05/06 02:08:49;;;;;;;15.65;7.40;;;;;;;3.50;100.00;100615.63;1695165;83;21076;-60
2022/05/06 02:11:18;;;;;;;15.20;7.22;;;;;;;3.48;100.00;100617.17;1697318;83;21037;-60
2022/05/06 02:13:45;;;;;;;14.73;7.83;;;;;;;3.46;100.00;100618.41;1709892;82;21307;-60
2022/05/06 02:16:16;;;;;;;15.78;7.70;;;;;;;3.47;100.00;100624.92;1694123;84;21670;-61
2022/05/06 02:18:45;;;;;;;13.83;7.03;;;;;;;3.45;100.00;100620.27;1660405;82;21142;-61
2022/05/06 02:21:19;;;;;;;14.05;7.35;;;;;;;3.47;100.00;100620.08;1682299;84;21593;-61
2022/05/06 02:23:50;;;;;;;15.55;7.20;;;;;;;3.44;100.00;100623.16;1711934;82;21153;-62
2022/05/06 02:26:19;;;;;;;15.83;6.78;;;;;;;3.45;100.00;100621.62;1719325;83;21036;-61
2022/05/06 02:28:53;;;;;;;11.55;7.08;;;;;;;3.44;100.00;100623.98;1723606;82;21046;-60
2022/05/06 02:34:06;;;;;;;13.40;7.05;;;;;;;3.44;100.00;100628.53;1703097;83;21066;-61
2022/05/06 02:36:35;;;;;;;14.35;6.83;;;;;;;3.44;100.00;100632.06;1701174;83;21053;-61
2022/05/06 02:39:02;;;;;;;11.97;7.05;;;;;;;3.42;100.00;100633.31;1681188;84;21058;-61
2022/05/06 02:41:31;;;;;;;12.35;7.42;;;;;;;3.42;100.00;100628.76;1691478;84;21098;-61
2022/05/06 02:43:57;;;;;;;12.00;6.58;;;;;;;3.42;100.00;100631.45;1689497;83;21098;-61
2022/05/06 02:46:26;;;;;;;11.68;6.33;;;;;;;3.45;100.00;100628.34;1723218;82;20994;-62
2022/05/06 02:48:54;;;;;;;12.60;6.62;;;;;;;3.47;100.00;100630.31;1717026;82;21119;-61
2022/05/06 02:51:21;;;;;;;13.22;6.85;;;;;;;3.53;100.00;100626.50;1697095;83;21462;-62
2022/05/06 02:53:47;;;;;;;12.07;6.60;;;;;;;3.58;100.00;100624.03;1691807;83;21437;-62
2022/05/06 02:56:16;;;;;;;12.25;7.03;;;;;;;3.62;100.00;100623.91;1707765;83;21452;-60
2022/05/06 02:58:44;;;;;;;13.38;6.53;;;;;;;3.64;100.00;100624.55;1707797;83;21003;-61
2022/05/06 03:01:10;;;;;;;11.25;6.60;;;;;;;3.69;100.00;100625.58;1716007;83;22007;-60
2022/05/06 03:03:38;;;;;;;17.45;7.30;;;;;;;3.75;100.00;100627.48;1714631;83;20984;-61
2022/05/06 03:06:07;;;;;;;14.55;7.00;;;;;;;3.79;100.00;100630.04;1719603;82;21049;-60
2022/05/06 03:08:35;;;;;;;17.65;6.97;;;;;;;3.88;100.00;100625.30;1721212;83;21565;-60
2022/05/06 03:11:03;;;;;;;11.45;6.53;;;;;;;3.92;100.00;100626.55;1716770;82;21478;-60
2022/05/06 03:13:30;;;;;;;11.15;6.62;;;;;;;3.98;100.00;100629.75;1715435;82;21007;-61
2022/05/06 03:15:58;;;;;;;14.78;7.03;;;;;;;4.04;100.00;100624.87;1714027;83;21486;-62
2022/05/06 03:18:26;;;;;;;13.13;7.08;;;;;;;4.12;100.00;100630.05;1722109;82;21022;-62
2022/05/06 03:20:54;;;;;;;12.50;7.15;;;;;;;4.21;100.00;100631.52;1693349;83;21602;-62
2022/05/06 03:23:20;;;;;;;13.13;6.78;;;;;;;4.28;100.00;100631.50;1724433;83;21023;-62
2022/05/06 03:25:47;;;;;;;12.65;6.85;;;;;;;4.34;100.00;100638.23;1727114;82;21057;-62
2022/05/06 03:28:13;;;;;;;;;;;;;;;4.40;100.00;100644.64;1717054;82;21589;-61
2022/05/06 03:30:45;;;;;;;15.48;6.90;;;;;;;4.45;100.00;100652.94;1723392;82;20097;-62
2022/05/06 03:33:18;;;;;;;11.08;6.70;;;;;;;4.41;100.00;100651.19;1723407;83;20979;-62
2022/05/06 03:35:44;;;;;;;12.80;6.70;;;;;;;4.49;100.00;100650.14;1709526;82;21058;-62
2022/05/06 03:38:13;;;;;;;12.43;7.10;;;;;;;4.59;100.00;100652.39;1684312;84;20984;-61
2022/05/06 03:40:41;;;;;;;11.40;6.95;;;;;;;4.81;100.00;100653.28;1689641;84;21137;-62
2022/05/06 03:43:08;;;;;;;10.05;6.85;;;;;;;5.19;100.00;100652.51;1708612;82;21573;-62
2022/05/06 03:45:38;;;;;;;14.05;7.10;;;;;;;5.63;100.00;100655.20;1713943;82;21042;-62
2022/05/06 03:48:04;;;;;;;16.23;7.37;;;;;;;6.13;100.00;100658.79;1697595;83;21002;-62
2022/05/06 03:53:18;;;;;;;11.40;6.47;;;;;;;7.16;100.00;100660.34;1746163;82;20983;-62
2022/05/06 03:55:46;;;;;;;15.23;6.75;;;;;;;7.64;100.00;100663.89;1739687;80;21567;-61
2022/05/06 03:58:12;;;;;;;12.55;6.60;;;;;;;8.11;100.00;100662.66;1721901;81;21026;-62
2022/05/06 04:00:40;;;;;;;;;;;;;;;8.58;100.00;100658.11;1749144;81;21063;-61
2022/05/06 04:03:07;;;;;;;10.95;6.03;;;;;;;8.86;100.00;100649.53;1744551;82;20115;-62
2022/05/06 04:05:35;;;;;;;11.95;6.45;;;;;;;9.06;100.00;100657.84;1744769;81;21031;-61
2022/05/06 04:08:02;;;;;;;;;;;;;;;9.29;100.00;100654.52;1747720;81;21010;-61
2022/05/06 04:10:32;;;;;;;13.05;6.55;;;;;;;9.53;100.00;100653.89;1745934;81;20112;-64
2022/05/06 04:13:02;;;;;;;13.05;5.90;;;;;;;9.77;100.00;100656.82;1740925;82;21040;-63
2022/05/06 04:15:29;;;;;;;9.25;5.60;;;;;;;10.11;100.00;100662.29;1745235;80;21084;-60
2022/05/06 04:17:56;;;;;;;8.75;4.80;;;;;;;10.41;100.00;100661.48;1743540;81;20965;-61
2022/05/06 04:25:55;;;;;;;8.15;4.15;;;;;;;11.10;100.00;100661.38;1740640;81;21118;-62
2022/05/06 04:28:23;;;;;;;7.47;4.30;;;;;;;11.30;100.00;100656.17;1745049;81;21023;-61
2022/05/06 04:30:52;;;;;;;7.67;4.05;;;;;;;11.46;100.00;100659.38;1743979;81;21603;-60
2022/05/06 04:33:19;;;;;;;8.78;4.35;;;;;;;11.56;100.00;100664.11;1745981;81;20973;-61
2022/05/06 04:35:48;;;;;;;8.60;4.95;;;;;;;11.56;97.82;100674.20;1744552;80;21107;-62
2022/05/06 04:38:14;;;;;;;9.05;4.70;;;;;;;11.61;100.00;100670.17;1746626;81;20967;-62
2022/05/06 04:40:42;;;;;;;9.48;4.33;;;;;;;11.81;100.00;100673.14;1723774;82;21031;-60
2022/05/06 04:43:09;;;;;;;9.83;4.08;;;;;;;11.81;98.49;100664.42;1743888;82;21027;-61
2022/05/06 04:45:41;;;;;;;8.10;3.62;;;;;;;11.95;100.00;100667.02;1744584;80;21026;-61
2022/05/06 04:48:11;;;;;;;7.03;3.90;;;;;;;12.15;96.68;100666.37;1737679;81;21028;-62
2022/05/06 04:50:39;;;;;;;6.55;3.50;;;;;;;12.21;89.88;100669.98;1734453;81;21048;-61
2022/05/06 04:53:09;;;;;;;11.55;3.47;;;;;;;12.28;85.65;100665.96;1740624;82;21416;-62
2022/05/06 04:55:39;;;;;;;6.55;3.37;;;;;;;12.42;85.83;100675.89;1736186;81;21014;-61
2022/05/06 04:58:07;;;;;;;6.92;3.37;;;;;;;12.44;77.04;100669.62;1747584;81;21031;-61
2022/05/06 05:00:34;;;;;;;8.55;3.42;;;;;;;12.30;77.65;100665.69;1746161;81;21067;-62
2022/05/06 05:05:37;;;;;;;6.50;3.47;;;;;;;12.23;74.54;100671.36;1761866;79;22922;-60
2022/05/06 05:08:06;;;;;;;9.68;3.55;;;;;;;12.23;74.54;100671.36;1717620;81;21552;-61
2022/05/06 05:10:34;;;;;;;8.55;3.72;;;;;;;12.29;76.89;100671.68;1723181;81;21007;-61
2022/05/06 05:13:01;;;;;;;7.12;3.87;;;;;;;12.49;78.09;100681.95;1730614;82;21071;-62
2022/05/06 05:15:30;;;;;;;16.25;7.62;;;;;;;12.67;73.49;100675.27;1728437;81;21070;-59
2022/05/06 05:17:57;;;;;;;11.60;6.95;;;;;;;12.78;72.87;100683.27;1701433;83;20994;-63
2022/05/06 05:20:25;;;;;;;13.60;6.37;;;;;;;12.91;77.35;100677.87;1674400;82;21077;-63
2022/05/06 05:22:52;;;;;;;9.58;6.10;;;;;;;13.10;74.63;100683.76;1660737;84;21051;-64
2022/05/06 05:25:19;;;;;;;11.48;5.53;;;;;;;13.24;72.97;100683.55;1698314;83;21132;-62
2022/05/06 05:27:46;;;;;;;8.65;4.17;;;;;;;13.39;72.28;100680.89;1694797;83;21049;-60
2022/05/06 05:30:14;;;;;;;11.43;4.30;;;;;;;13.54;68.09;100680.11;1689239;83;21506;-61
2022/05/06 05:32:41;;;;;;;11.85;4.17;;;;;;;13.75;70.25;100683.17;1694351;83;20985;-61
2022/05/06 05:35:09;;;;;;;9.73;4.80;;;;;;;14.08;72.03;100681.88;1671893;84;21039;-60
2022/05/06 05:37:39;;;;;;;8.63;3.92;;;;;;;14.31;66.03;100682.17;1686143;83;21021;-61
2022/05/06 05:40:07;;;;;;;10.18;3.75;;;;;;;14.44;68.59;100688.52;1690666;83;21117;-62
2022/05/06 05:42:36;;;;;;;9.88;4.05;;;;;;;14.67;64.60;100686.30;1665117;85;21062;-59
2022/05/06 05:50:38;;;;;;;7.25;3.90;;;;;;;14.89;62.07;100682.16;1692182;83;21054;-60
2022/05/06 05:53:06;;;;;;;9.98;3.72;;;;;;;15.15;58.99;100682.10;1685332;83;20979;-61
2022/05/06 05:55:34;;;;;;;5.40;3.08;;;;;;;15.24;55.40;100679.87;1678678;84;21102;-60
2022/05/06 05:58:03;;;;;;;10.75;3.92;;;;;;;15.25;55.94;100673.84;1689086;84;21356;-60
2022/05/06 06:00:29;;;;;;;6.62;3.20;;;;;;;15.32;55.52;100677.09;1684174;83;21514;-61
2022/05/06 06:02:56;;;;;;;7.83;3.52;;;;;;;15.44;55.29;100672.13;1687761;83;21915;-61
2022/05/06 06:05:23;;;;;;;13.80;3.58;;;;;;;15.68;57.20;100663.52;1653260;84;21082;-63
2022/05/06 06:07:49;;;;;;;9.20;3.02;;;;;;;16.03;60.91;100673.46;1681351;84;20964;-61
2022/05/06 06:10:18;;;;;;;6.70;3.02;;;;;;;16.40;54.05;100670.96;1654597;84;21606;-59
2022/05/06 06:12:45;;;;;;;7.80;2.50;;;;;;;16.70;52.20;100677.34;1682286;84;21498;-61
2022/05/06 06:15:11;;;;;;;6.75;2.70;;;;;;;16.98;49.89;100674.30;1721729;81;21111;-62
2022/05/06 06:17:38;;;;;;;5.83;2.45;;;;;;;17.33;47.95;100673.34;1724327;81;21076;-63
2022/05/06 06:20:07;;;;;;;4.62;2.65;;;;;;;17.50;47.93;100677.56;1716859;81;21120;-61
2022/05/06 06:22:36;;;;;;;9.63;2.67;;;;;;;17.80;45.30;100667.53;1698360;81;21049;-62
2022/05/06 06:25:07;;;;;;;5.58;2.20;;;;;;;18.05;43.44;100668.54;1733571;81;21102;-63
2022/05/06 06:27:34;;;;;;;5.25;2.40;;;;;;;18.31;41.21;100669.80;1715481;81;20964;-61
2022/05/06 06:30:04;;;;;;;5.00;2.02;;;;;;;18.49;38.75;100670.87;1725448;81;21066;-62
2022/05/06 06:32:33;;;;;;;4.80;2.05;;;;;;;18.56;36.17;100677.41;1729334;82;20999;-62
2022/05/06 06:35:00;;;;;;;4.22;2.30;;;;;;;18.44;37.38;100679.22;1690551;82;21034;-63
2022/05/06 06:37:31;;;;;;;36.28;10.32;;;;;;;18.52;35.87;100684.08;1688497;83;21054;-62
2022/05/06 06:39:59;;;;;;;7.97;3.22;;;;;;;18.68;35.68;100673.59;1733415;80;21021;-61
2022/05/06 06:42:26;;;;;;;7.25;2.80;;;;;;;18.78;33.32;100679.74;1733924;82;21436;-60
2022/05/06 06:44:55;;;;;;;8.00;3.00;;;;;;;18.79;33.68;100680.02;1728642;81;21093;-59
2022/05/06 06:47:23;;;;;;;6.80;2.77;;;;;;;18.81;32.40;100681.10;1728252;81;21404;-60
2022/05/06 06:50:09;;;;;;;20.17;4.83;;;;;;;18.83;33.46;100677.47;1714918;81;21075;-59
2022/05/06 06:52:56;;;;;;;5.58;2.98;;;;;;;18.89;32.41;100684.52;1593753;89;21731;-59
2022/05/06 06:55:22;;;;;;;6.03;2.80;;;;;;;19.05;34.10;100686.44;1610350;88;21022;-58
2022/05/06 06:57:50;;;;;;;3.60;2.58;;;;;;;19.27;30.95;100681.84;1635324;83;21034;-59
2022/05/06 07:00:18;;;;;;;4.80;2.30;;;;;;;19.25;32.55;100686.03;1726870;83;21058;-60
2022/05/06 07:02:45;;;;;;;5.53;2.55;;;;;;;19.32;30.68;100683.12;1727087;83;21450;-61
2022/05/06 07:05:11;;;;;;;4.75;1.92;;;;;;;19.21;30.77;100678.93;1685957;84;21055;-60
2022/05/06 07:13:06;;;;;;;4.55;1.52;;;;;;;19.61;29.33;100683.40;1624835;88;21613;-59
2022/05/06 07:15:34;;;;;;;6.75;2.25;;;;;;;19.49;27.84;100684.47;1675537;82;21150;-59
2022/05/06 07:18:00;;;;;;;20.65;8.43;;;;;;;19.39;29.35;100682.16;1721441;82;21026;-59
2022/05/06 07:20:27;;;;;;;4.60;1.70;;;;;;;19.55;29.79;100679.94;1724489;82;21069;-60
2022/05/06 07:22:54;;;;;;;3.45;1.10;;;;;;;19.90;28.09;100681.66;1719570;82;21480;-59
2022/05/06 07:25:20;;;;;;;5.25;1.60;;;;;;;19.99;27.30;100677.84;1725456;81;21070;-58
2022/05/06 07:27:47;;;;;;;7.83;2.02;;;;;;;19.98;26.25;100683.11;1722087;82;21486;-59
2022/05/06 07:30:14;;;;;;;14.40;6.55;;;;;;;19.82;26.95;100682.65;1720040;81;21118;-59
2022/05/06 07:32:40;;;;;;;3.35;1.70;;;;;;;19.70;26.48;100685.67;1721766;82;21063;-59
2022/05/06 07:35:09;;;;;;;11.57;4.45;;;;;;;19.76;27.17;100679.75;1713114;82;21114;-59
2022/05/06 07:37:36;;;;;;;4.00;1.47;;;;;;;19.75;26.77;100677.28;1718064;82;20988;-58
2022/05/06 07:40:04;;;;;;;5.75;2.20;;;;;;;19.72;27.22;100673.77;1689704;83;21130;-59
2022/05/06 07:42:33;;;;;;;4.97;2.00;;;;;;;19.82;27.67;100669.39;1669060;84;21059;-59
2022/05/06 07:44:59;;;;;;;3.75;1.60;;;;;;;19.87;26.88;100669.30;1677485;84;21557;-58
2022/05/06 07:47:26;;;;;;;9.28;2.90;;;;;;;19.91;27.81;100680.54;1660313;85;21031;-59
2022/05/06 07:49:52;;;;;;;4.78;2.30;;;;;;;20.00;26.66;100669.81;1670435;84;21589;-59
2022/05/06 07:52:19;;;;;;;7.12;2.35;;;;;;;20.00;26.23;100672.58;1681241;85;21005;-59
2022/05/06 07:54:45;;;;;;;5.72;1.92;;;;;;;19.84;26.31;100671.27;1681971;83;21539;-59
2022/05/06 07:57:11;;;;;;;5.08;2.30;;;;;;;19.71;27.24;100674.89;1683301;84;20938;-59
2022/05/06 07:59:38;;;;;;;3.30;1.67;;;;;;;19.52;26.29;100661.79;1678986;84;21538;-59
2022/05/06 08:04:50;;;;;;;6.53;1.85;;;;;;;19.38;28.05;100661.74;1674986;84;21132;-60
2022/05/06 08:07:17;;;;;;;23.65;9.03;;;;;;;19.69;27.21;100669.69;1676674;84;21047;-60
2022/05/06 08:09:43;;;;;;;7.92;3.00;;;;;;;19.87;27.69;100672.05;1682464;84;21057;-61
2022/05/06 08:12:13;;;;;;;5.60;1.65;;;;;;;19.96;26.71;100666.03;1646634;85;21011;-59
2022/05/06 08:14:39;;;;;;;5.58;2.15;;;;;;;20.06;27.02;100661.64;1671116;84;21080;-60
2022/05/06 08:17:06;;;;;;;3.50;1.40;;;;;;;20.15;27.16;100663.93;1719888;82;20948;-60
2022/05/06 08:19:33;;;;;;;2.75;1.40;;;;;;;20.25;25.81;100669.77;1719955;82;21130;-59
2022/05/06 08:21:59;;;;;;;4.22;1.50;;;;;;;20.27;25.37;100665.58;1701301;82;21050;-59
2022/05/06 08:24:27;;;;;;;2.42;1.22;;;;;;;20.29;26.98;100657.81;1721189;82;21276;-60
2022/05/06 08:26:54;;;;;;;4.35;1.57;;;;;;;20.54;27.41;100664.66;1721695;82;21075;-60
2022/05/06 08:29:22;;;;;;;2.27;1.30;;;;;;;20.71;27.10;100662.55;1706102;82;21098;-58
2022/05/06 08:31:48;;;;;;;4.00;1.45;;;;;;;20.84;26.25;100668.55;1722130;82;21024;-58
2022/05/06 08:34:15;;;;;;;4.08;1.42;;;;;;;20.74;25.55;100659.14;1722025;82;21095;-59
2022/05/06 08:36:43;;;;;;;4.95;1.62;;;;;;;20.65;26.12;100658.30;1724728;82;21082;-60
2022/05/06 08:39:11;;;;;;;3.15;1.57;;;;;;;20.59;25.70;100649.85;1724652;82;21635;-59
2022/05/06 08:41:39;;;;;;;4.28;1.40;;;;;;;20.40;25.97;100655.61;1726914;82;20945;-60
2022/05/06 08:52:35;;;;;;;3.17;1.52;;;;;;;20.32;25.67;100652.21;1675776;85;21672;-59
2022/05/06 08:55:02;;;;;;;3.50;1.43;;;;;;;20.37;26.03;100641.00;1717521;82;21050;-59
2022/05/06 08:57:29;;;;;;;4.65;1.52;;;;;;;20.35;26.07;100644.10;1720730;82;20980;-59
2022/05/06 08:59:56;;;;;;;3.85;1.50;;;;;;;20.35;27.05;100641.34;1703548;82;21031;-61
2022/05/06 09:02:22;;;;;;;6.00;1.60;;;;;;;20.45;25.57;100636.66;1722129;82;21002;-59
2022/05/06 09:04:49;;;;;;;3.67;1.45;;;;;;;20.42;25.62;100637.30;1724143;82;21049;-59
2022/05/06 09:07:21;;;;;;;3.87;1.60;;;;;;;20.43;26.20;100637.56;1730156;82;20987;-57
2022/05/06 09:10:13;;;;;;;3.90;1.60;;;;;;;20.44;24.92;100623.41;1729112;81;21043;-58
2022/05/06 09:12:44;;;;;;;5.10;1.90;;;;;;;20.29;25.05;100621.87;1737365;82;20939;-57
2022/05/06 09:17:58;;;;;;;7.08;1.50;;;;;;;19.92;25.81;100626.33;1694108;84;21001;-57
2022/05/06 09:20:25;;;;;;;5.40;1.60;;;;;;;19.73;26.36;100620.95;1692416;83;21372;-58
2022/05/06 09:22:52;;;;;;;5.35;1.50;;;;;;;19.62;25.67;100618.20;1701239;83;21516;-58
2022/05/06 09:25:38;;;;;;;2.10;1.12;;;;;;;19.52;26.19;100618.39;1697051;83;21652;-58
2022/05/06 09:28:06;;;;;;;3.35;1.55;;;;;;;19.34;26.46;100625.65;1667057;85;21265;-58
2022/05/06 09:30:34;;;;;;;3.35;1.55;;;;;;;19.23;27.78;100615.16;1661486;85;21107;-57
2022/05/06 09:33:01;;;;;;;8.73;1.57;;;;;;;19.16;28.02;100613.37;1684514;84;21075;-58
2022/05/06 09:35:31;;;;;;;5.55;1.60;;;;;;;19.24;28.42;100619.53;1684706;85;21591;-58
2022/05/06 09:37:57;;;;;;;2.55;1.50;;;;;;;19.13;27.02;100616.16;1686533;84;21004;-58
2022/05/06 09:40:30;;;;;;;4.70;1.60;;;;;;;18.90;26.88;100618.57;1687168;84;21055;-57
2022/05/06 09:42:59;;;;;;;3.45;1.50;;;;;;;18.74;28.32;100618.62;1683691;85;20987;-58
2022/05/06 09:45:33;;;;;;;3.58;1.65;;;;;;;18.70;28.59;100615.66;1676585;84;21582;-58
2022/05/06 09:48:01;;;;;;;4.95;1.50;;;;;;;18.69;27.77;100615.39;1674251;85;20983;-59
2022/05/06 09:50:36;;;;;;;4.20;1.45;;;;;;;18.55;26.64;100613.72;1679336;84;21541;-59
2022/05/06 09:53:04;;;;;;;4.35;1.50;;;;;;;18.47;28.04;100615.76;1714312;83;21010;-59
2022/05/06 09:55:30;;;;;;;2.55;1.30;;;;;;;18.50;27.81;100606.87;1695553;84;21053;-59
2022/05/06 09:57:59;;;;;;;2.87;1.20;;;;;;;18.37;28.73;100610.69;1692323;83;20983;-60
2022/05/06 10:00:27;;;;;;;4.42;1.45;;;;;;;18.36;28.29;100622.83;1683265;83;21734;-60
2022/05/06 10:02:57;;;;;;;5.65;1.40;;;;;;;18.33;28.22;100611.03;1699670;84;21661;-60
2022/05/06 10:05:24;;;;;;;4.67;1.40;;;;;;;18.33;28.65;100616.55;1670127;84;21705;-60
2022/05/06 10:07:58;;;;;;;3.17;1.27;;;;;;;18.39;27.76;100618.09;1698254;83;20977;-60
2022/05/06 10:10:27;;;;;;;4.30;1.52;;;;;;;18.36;28.18;100614.56;1694828;84;21076;-60
2022/05/06 10:13:00;;;;;;;3.70;1.52;;;;;;;18.35;26.08;100616.26;1687324;83;20978;-60
2022/05/06 10:15:28;;;;;;;4.30;1.50;;;;;;;18.21;27.27;100612.05;1707067;84;21081;-59
2022/05/06 10:18:07;;;;;;;5.58;1.45;;;;;;;18.11;27.96;100611.41;1689484;84;21001;-59
2022/05/06 10:20:45;;;;;;;3.62;1.30;;;;;;;18.04;27.38;100609.59;1665659;86;21085;-59
2022/05/06 10:23:15;;;;;;;3.95;1.30;;;;;;;18.09;28.83;100603.45;1675176;83;21028;-59
2022/05/06 10:25:48;;;;;;;3.27;1.52;;;;;;;18.31;28.30;100603.64;1694720;84;21655;-59
2022/05/06 10:34:23;;;;;;;4.67;1.55;;;;;;;18.50;28.88;100593.09;1691226;84;21130;-58
2022/05/06 10:36:54;;;;;;;4.20;1.60;;;;;;;18.63;30.25;100597.31;1698820;84;21100;-58
2022/05/06 10:39:26;;;;;;;4.10;1.40;;;;;;;18.81;29.69;100596.97;1699576;84;21157;-59
2022/05/06 10:42:14;;;;;;;7.20;1.98;;;;;;;18.90;27.89;100597.88;1702672;84;21514;-61
2022/05/06 10:44:48;;;;;;;2.67;1.55;;;;;;;18.92;28.06;100585.17;1683766;85;21106;-60
2022/05/06 10:47:23;;;;;;;3.08;1.45;;;;;;;18.92;29.06;100587.34;1684098;84;21415;-59
2022/05/06 10:49:52;;;;;;;;;;;;;;;18.91;27.78;100584.91;1690344;84;21596;-60
2022/05/06 10:52:26;;;;;;;;;;;;;;;18.89;27.32;100585.20;1680574;84;20127;-60
2022/05/06 10:54:55;;;;;;;3.65;1.55;;;;;;;18.72;26.77;100584.44;1665237;85;20143;-62
2022/05/06 10:57:27;;;;;;;3.00;1.62;;;;;;;18.58;27.25;100584.16;1664039;84;20985;-60
2022/05/06 11:00:02;;;;;;;4.10;1.70;;;;;;;18.54;27.44;100578.44;1683379;83;21050;-60
2022/05/06 11:02:33;;;;;;;2.00;1.20;;;;;;;18.51;27.18;100574.09;1679150;84;21031;-60
2022/05/06 11:05:12;;;;;;;6.75;1.82;;;;;;;18.50;26.47;100566.90;1679885;84;21053;-61
2022/05/06 11:07:40;;;;;;;6.53;2.58;;;;;;;18.56;27.99;100568.49;1660073;85;20981;-60
2022/05/06 11:10:18;;;;;;;4.85;2.08;;;;;;;18.67;27.76;100557.53;1657415;85;21099;-60
2022/05/06 11:12:51;;;;;;;7.15;1.57;;;;;;;18.68;27.57;100550.87;1653970;86;20997;-58
2022/05/06 11:15:21;;;;;;;2.92;1.10;;;;;;;18.64;28.11;100549.84;1679297;84;21095;-63
2022/05/06 11:17:48;;;;;;;6.78;1.62;;;;;;;18.70;27.92;100544.50;1705876;82;21873;-59
2022/05/06 11:20:22;;;;;;;2.33;1.42;;;;;;;18.84;29.06;100539.80;1719700;82;21024;-59
2022/05/06 11:23:03;;;;;;;3.30;1.40;;;;;;;18.97;28.02;100549.19;1720104;82;20971;-62
2022/05/06 11:25:47;;;;;;;6.28;1.85;;;;;;;19.01;27.09;100539.17;1712928;82;21621;-60
2022/05/06 11:28:20;;;;;;;5.95;1.80;;;;;;;19.08;26.84;100532.11;1684135;84;21036;-60
2022/05/06 11:30:49;;;;;;;5.17;1.90;;;;;;;19.02;27.57;100541.63;1684577;84;21059;-59
2022/05/06 11:33:31;;;;;;;5.37;1.80;;;;;;;19.18;27.60;100538.78;1679272;84;21059;-60
2022/05/06 11:36:03;;;;;;;4.37;1.90;;;;;;;19.25;28.63;100535.05;1681188;84;21031;-59
2022/05/06 11:38:34;;;;;;;5.28;1.92;;;;;;;19.31;26.53;100533.80;1719014;82;20971;-59
2022/05/06 11:41:12;;;;;;;3.52;1.87;;;;;;;19.25;27.57;100532.84;1679321;84;21005;-59
2022/05/06 11:43:40;;;;;;;4.42;1.70;;;;;;;19.16;26.66;100534.71;1719606;82;20961;-59
2022/05/06 11:48:54;;;;;;;5.90;1.60;;;;;;;18.78;25.72;100520.33;1722579;81;21102;-59
2022/05/06 11:51:30;;;;;;;3.27;1.60;;;;;;;18.57;25.78;100519.09;1720039;82;21042;-59
2022/05/06 11:53:57;;;;;;;3.60;1.55;;;;;;;18.51;26.39;100517.02;1726467;82;21058;-59
2022/05/06 11:56:25;;;;;;;2.70;1.60;;;;;;;18.60;26.60;100504.14;1702270;82;21549;-59
2022/05/06 11:58:54;;;;;;;6.15;1.52;;;;;;;18.65;27.05;100489.44;1704094;82;21082;-60
2022/05/06 12:01:28;;;;;;;3.95;1.42;;;;;;;18.92;26.71;100497.67;1720993;82;21050;-58
2022/05/06 12:04:09;;;;;;;4.95;1.60;;;;;;;19.02;27.42;100496.66;1721035;82;21117;-58
2022/05/06 12:06:40;;;;;;;4.55;1.70;;;;;;;19.21;26.29;100504.22;1715647;83;21070;-58
2022/05/06 12:09:14;;;;;;;2.83;1.50;;;;;;;19.20;25.09;100499.26;1718052;82;21086;-57
2022/05/06 12:11:41;;;;;;;4.15;1.60;;;;;;;19.09;24.96;100488.78;1680158;85;20968;-59
2022/05/06 12:14:13;;;;;;;3.85;1.50;;;;;;;18.96;24.95;100488.22;1698875;83;21034;-59
2022/05/06 12:17:00;;;;;;;8.70;1.70;;;;;;;18.90;26.31;100487.53;1717263;82;21515;-60
2022/05/06 12:19:46;;;;;;;5.08;1.77;;;;;;;18.91;25.58;100485.59;1710727;83;21070;-59
2022/05/06 12:22:15;;;;;;;2.62;1.30;;;;;;;18.99;25.46;100482.11;1704839;82;21008;-58
2022/05/06 12:24:50;;;;;;;4.92;1.90;;;;;;;18.97;25.07;100469.99;1678237;83;21511;-60